createdAt,value
2022-09-20T00:01:17.680Z,8.74
2022-09-20T00:03:44.810Z,8.78
2022-09-20T00:06:12.523Z,8.84
2022-09-20T00:08:39.007Z,8.86
2022-09-20T00:11:06.650Z,8.86
2022-09-20T00:13:33.042Z,8.84
2022-09-20T00:15:59.488Z,8.81
2022-09-20T00:18:26.218Z,8.80
2022-09-20T00:20:52.775Z,8.77
2022-09-20T00:23:19.589Z,8.70
2022-09-20T00:25:46.558Z,8.55
2022-09-20T00:28:12.883Z,8.55
2022-09-20T00:30:39.237Z,8.57
2022-09-20T00:33:05.627Z,8.63
2022-09-20T00:35:32.013Z,8.57
2022-09-20T00:37:58.340Z,8.52
2022-09-20T00:40:24.744Z,8.54
2022-09-20T00:42:51.114Z,8.50
2022-09-20T00:45:20.190Z,8.53
2022-09-20T00:48:05.862Z,8.40
2022-09-20T00:50:35.132Z,8.32
2022-09-20T00:53:06.361Z,8.41
2022-09-20T00:55:33.464Z,8.36
2022-09-20T00:57:59.806Z,8.35
2022-09-20T01:00:26.147Z,8.40
2022-09-20T01:02:53.561Z,8.47
2022-09-20T01:05:19.922Z,8.48
2022-09-20T01:07:46.743Z,8.44
2022-09-20T01:10:13.081Z,8.40
2022-09-20T01:12:40.689Z,8.39
2022-09-20T01:15:07.643Z,8.43
2022-09-20T01:17:34.780Z,8.44
2022-09-20T01:20:06.593Z,8.45
2022-09-20T01:22:32.892Z,8.34
2022-09-20T01:25:14.585Z,8.31
2022-09-20T01:27:43.875Z,8.25
2022-09-20T01:30:20.156Z,8.16
2022-09-20T01:32:49.614Z,8.07
2022-09-20T01:35:16.550Z,8.02
2022-09-20T01:37:49.488Z,8.03
2022-09-20T01:40:20.713Z,8.13
2022-09-20T01:42:50.222Z,8.15
2022-09-20T01:45:23.890Z,8.26
2022-09-20T01:48:09.494Z,8.30
2022-09-20T01:50:54.718Z,8.40
2022-09-20T01:53:27.220Z,8.41
2022-09-20T01:56:05.831Z,8.39
2022-09-20T01:59:07.189Z,8.38
2022-09-20T02:01:56.324Z,8.37
2022-09-20T02:04:42.127Z,8.42
2022-09-20T02:07:17.354Z,8.37
2022-09-20T02:10:02.626Z,8.33
2022-09-20T02:12:41.220Z,8.36
2022-09-20T02:15:13.937Z,8.36
2022-09-20T02:17:49.552Z,8.40
2022-09-20T02:20:24.862Z,8.42
2022-09-20T02:22:53.308Z,8.37
2022-09-20T02:25:38.445Z,8.39
2022-09-20T02:28:13.216Z,8.36
2022-09-20T02:30:58.430Z,8.39
2022-09-20T02:33:51.361Z,8.40
2022-09-20T02:36:17.682Z,8.40
2022-09-20T02:38:49.837Z,8.44
2022-09-20T02:41:25.599Z,8.49
2022-09-20T02:43:56.135Z,8.48
2022-09-20T02:46:22.578Z,8.43
2022-09-20T02:48:51.619Z,8.43
2022-09-20T02:51:39.537Z,8.39
2022-09-20T02:54:15.562Z,8.44
2022-09-20T02:57:00.619Z,8.42
2022-09-20T02:59:29.985Z,8.46
2022-09-20T03:02:00.086Z,8.43
2022-09-20T03:05:02.116Z,8.55
2022-09-20T03:07:36.366Z,8.45
2022-09-20T03:10:21.139Z,8.41
2022-09-20T03:13:06.401Z,8.53
2022-09-20T03:15:51.732Z,8.50
2022-09-20T03:18:19.617Z,8.59
2022-09-20T03:21:04.831Z,8.55
2022-09-20T03:23:49.970Z,8.66
2022-09-20T03:26:39.846Z,8.56
2022-09-20T03:29:16.015Z,8.61
2022-09-20T03:31:54.717Z,8.52
2022-09-20T03:34:27.330Z,8.55
2022-09-20T03:37:02.517Z,8.51
2022-09-20T03:39:29.123Z,8.47
2022-09-20T03:42:14.008Z,8.44
2022-09-20T03:44:44.528Z,8.39
2022-09-20T03:47:43.384Z,8.41
2022-09-20T03:50:09.683Z,8.43
2022-09-20T03:52:41.169Z,8.48
2022-09-20T03:55:10.507Z,8.40
2022-09-20T03:57:39.549Z,8.46
2022-09-20T04:00:20.726Z,8.37
2022-09-20T04:02:56.436Z,8.42
2022-09-20T04:05:33.974Z,8.47
2022-09-20T04:08:14.082Z,8.47
2022-09-20T04:10:46.957Z,8.41
2022-09-20T04:13:30.151Z,8.45
2022-09-20T04:15:56.620Z,8.45
2022-09-20T04:18:22.951Z,8.45
2022-09-20T04:20:49.339Z,8.45
2022-09-20T04:23:20.275Z,8.45
2022-09-20T04:25:47.189Z,8.51
2022-09-20T04:28:21.684Z,8.45
2022-09-20T04:30:48.191Z,8.47
2022-09-20T04:33:14.708Z,8.41
2022-09-20T04:36:02.412Z,8.42
2022-09-20T04:38:29.202Z,8.37
2022-09-20T04:41:16.554Z,8.43
2022-09-20T04:43:52.182Z,8.39
2022-09-20T04:46:21.677Z,8.41
2022-09-20T04:48:51.015Z,8.38
2022-09-20T04:51:20.376Z,8.39
2022-09-20T04:54:07.452Z,8.41
2022-09-20T04:56:52.454Z,8.41
2022-09-20T04:59:37.588Z,8.40
2022-09-20T05:02:20.428Z,8.43
2022-09-20T05:04:53.431Z,8.40
2022-09-20T05:07:31.369Z,8.39
2022-09-20T05:10:03.044Z,8.45
2022-09-20T05:12:36.015Z,8.52
2022-09-20T05:15:05.316Z,8.40
2022-09-20T05:17:38.163Z,8.43
2022-09-20T05:20:24.248Z,8.46
2022-09-20T05:22:50.610Z,8.40
2022-09-20T05:25:32.319Z,8.40
2022-09-20T05:28:01.268Z,8.39
2022-09-20T05:30:33.736Z,8.47
2022-09-20T05:33:09.200Z,8.47
2022-09-20T05:35:41.694Z,8.47
2022-09-20T05:38:13.574Z,8.54
2022-09-20T05:40:49.200Z,8.55
2022-09-20T05:43:28.704Z,8.50
2022-09-20T05:46:15.845Z,8.54
2022-09-20T05:49:01.247Z,8.57
2022-09-20T05:51:27.551Z,8.55
2022-09-20T05:54:07.623Z,8.65
2022-09-20T05:56:33.905Z,8.74
2022-09-20T05:59:00.261Z,8.72
2022-09-20T06:01:29.853Z,8.74
2022-09-20T06:04:05.708Z,8.74
2022-09-20T06:06:47.064Z,8.78
2022-09-20T06:09:22.516Z,8.68
2022-09-20T06:11:52.499Z,8.68
2022-09-20T06:14:27.606Z,8.71
2022-09-20T06:16:57.800Z,8.81
2022-09-20T06:19:31.873Z,8.90
2022-09-20T06:22:03.066Z,8.95
2022-09-20T06:25:00.944Z,8.99
2022-09-20T06:27:46.165Z,8.98
2022-09-20T06:30:16.842Z,8.82
2022-09-20T06:32:52.973Z,8.94
2022-09-20T06:35:20.724Z,9.03
2022-09-20T06:38:08.250Z,8.99
2022-09-20T06:40:58.079Z,9.00
2022-09-20T06:43:24.439Z,9.03
2022-09-20T06:45:50.864Z,9.11
2022-09-20T06:48:19.278Z,9.12
2022-09-20T06:50:45.648Z,9.25
2022-09-20T06:53:16.536Z,9.58
2022-09-20T06:55:44.809Z,9.88
2022-09-20T06:58:11.530Z,10.25
2022-09-20T07:00:39.687Z,10.14
2022-09-20T07:03:06.230Z,10.51
2022-09-20T07:05:32.647Z,10.54
2022-09-20T07:07:59.019Z,10.50
2022-09-20T07:10:27.981Z,10.58
2022-09-20T07:12:58.717Z,10.55
2022-09-20T07:15:25.314Z,10.42
2022-09-20T07:17:51.740Z,10.16
2022-09-20T07:20:21.532Z,10.27
2022-09-20T07:22:48.054Z,10.25
2022-09-20T07:25:14.402Z,10.22
2022-09-20T07:27:40.854Z,10.20
2022-09-20T07:30:08.113Z,10.16
2022-09-20T07:32:34.486Z,10.14
2022-09-20T07:35:01.951Z,10.21
2022-09-20T07:37:28.298Z,10.17
2022-09-20T07:39:54.631Z,10.15
2022-09-20T07:42:21.018Z,10.16
2022-09-20T07:44:47.660Z,10.07
2022-09-20T07:47:17.040Z,10.02
2022-09-20T07:49:43.570Z,9.86
2022-09-20T07:52:11.183Z,9.96
2022-09-20T07:54:37.498Z,9.95
2022-09-20T07:57:05.624Z,10.01
2022-09-20T07:59:31.970Z,10.08
2022-09-20T08:02:00.640Z,10.05
2022-09-20T08:04:27.027Z,10.12
2022-09-20T08:06:53.418Z,10.09
2022-09-20T08:09:19.812Z,10.32
2022-09-20T08:11:46.435Z,10.26
2022-09-20T08:14:13.719Z,10.32
2022-09-20T08:16:40.681Z,10.51
2022-09-20T08:19:07.048Z,10.56
2022-09-20T08:21:34.150Z,10.67
2022-09-20T08:24:01.037Z,10.80
2022-09-20T08:26:27.719Z,10.82
2022-09-20T08:28:54.728Z,11.06
2022-09-20T08:31:22.184Z,11.10
2022-09-20T08:33:48.605Z,11.16
2022-09-20T08:36:15.863Z,11.16
2022-09-20T08:41:30.959Z,10.94
2022-09-20T08:44:04.979Z,11.08
2022-09-20T08:46:36.701Z,11.09
2022-09-20T08:49:03.729Z,11.19
2022-09-20T08:51:30.677Z,11.26
2022-09-20T08:53:58.035Z,11.06
2022-09-20T08:56:27.297Z,11.15
2022-09-20T08:58:53.819Z,11.07
2022-09-20T09:01:24.479Z,11.02
2022-09-20T09:03:51.318Z,11.37
2022-09-20T09:06:18.691Z,11.40
2022-09-20T09:08:45.069Z,11.23
2022-09-20T09:11:14.887Z,11.24
2022-09-20T09:13:54.392Z,11.59
2022-09-20T09:16:24.678Z,12.00
2022-09-20T09:18:55.121Z,12.30
2022-09-20T09:21:21.415Z,11.97
2022-09-20T09:24:01.100Z,11.88
2022-09-20T09:26:27.587Z,11.67
2022-09-20T09:29:07.632Z,11.82
2022-09-20T09:31:34.047Z,11.62
2022-09-20T09:34:00.433Z,11.64
2022-09-20T09:36:26.756Z,11.55
2022-09-20T09:39:11.722Z,11.84
2022-09-20T09:41:38.127Z,12.19
2022-09-20T09:44:07.185Z,11.98
2022-09-20T09:46:33.924Z,12.19
2022-09-20T09:49:12.388Z,11.91
2022-09-20T09:51:39.120Z,12.00
2022-09-20T09:54:05.486Z,11.99
2022-09-20T09:56:50.675Z,12.16
2022-09-20T09:59:20.699Z,12.65
2022-09-20T10:01:56.639Z,13.19
2022-09-20T10:04:28.952Z,13.58
2022-09-20T10:07:01.088Z,13.30
2022-09-20T10:09:30.502Z,13.10
2022-09-20T10:12:02.855Z,12.49
2022-09-20T10:14:48.630Z,12.46
2022-09-20T10:17:21.265Z,12.29
2022-09-20T10:19:47.553Z,12.27
2022-09-20T10:22:19.589Z,12.19
2022-09-20T10:25:06.627Z,12.42
2022-09-20T10:27:51.756Z,12.69
2022-09-20T10:30:22.322Z,12.96
2022-09-20T10:32:59.905Z,13.57
2022-09-20T10:35:44.611Z,13.39
2022-09-20T10:38:29.875Z,13.43
2022-09-20T10:41:22.041Z,13.73
2022-09-20T10:44:07.971Z,14.18
2022-09-20T10:46:55.614Z,14.57
2022-09-20T10:49:40.784Z,14.44
2022-09-20T10:52:45.759Z,14.40
2022-09-20T10:55:14.711Z,14.01
2022-09-20T10:57:53.496Z,14.50
2022-09-20T11:00:20.885Z,13.85
2022-09-20T11:02:57.475Z,13.62
2022-09-20T11:05:33.150Z,13.36
2022-09-20T11:07:59.641Z,13.00
2022-09-20T11:10:28.707Z,12.88
2022-09-20T11:13:07.582Z,12.90
2022-09-20T11:15:39.644Z,13.90
2022-09-20T11:18:05.960Z,14.66
2022-09-20T11:20:33.427Z,14.52
2022-09-20T11:23:00.150Z,13.48
2022-09-20T11:25:31.018Z,13.26
2022-09-20T11:28:10.306Z,13.15
2022-09-20T11:30:38.317Z,13.09
2022-09-20T11:33:31.053Z,13.09
2022-09-20T11:35:58.516Z,12.83
2022-09-20T11:38:26.209Z,12.93
2022-09-20T11:40:53.989Z,12.92
2022-09-20T11:43:20.342Z,12.84
2022-09-20T11:45:47.805Z,12.91
2022-09-20T11:48:19.111Z,13.16
2022-09-20T11:50:54.610Z,13.20
2022-09-20T11:53:36.953Z,13.24
2022-09-20T11:56:12.786Z,13.37
2022-09-20T11:58:49.035Z,13.28
2022-09-20T12:01:35.208Z,13.42
2022-09-20T12:07:10.644Z,13.84
2022-09-20T12:09:40.508Z,13.67
2022-09-20T12:12:27.139Z,13.79
2022-09-20T12:14:56.962Z,13.92
2022-09-20T12:17:42.239Z,14.44
2022-09-20T12:20:27.845Z,14.24
2022-09-20T12:23:04.898Z,14.50
2022-09-20T12:25:34.834Z,14.92
2022-09-20T12:28:01.272Z,14.79
2022-09-20T12:30:28.857Z,14.80
2022-09-20T12:32:57.362Z,14.90
2022-09-20T12:35:36.035Z,15.15
2022-09-20T12:38:20.878Z,15.64
2022-09-20T12:41:06.231Z,16.39
2022-09-20T12:43:33.083Z,15.85
2022-09-20T12:46:04.538Z,15.54
2022-09-20T12:48:35.265Z,15.83
2022-09-20T12:51:39.238Z,15.50
2022-09-20T12:54:07.023Z,15.39
2022-09-20T12:56:36.211Z,16.12
2022-09-20T12:59:05.773Z,15.35
2022-09-20T13:01:33.318Z,14.72
2022-09-20T13:04:18.564Z,14.79
2022-09-20T13:06:45.214Z,15.09
2022-09-20T13:09:13.070Z,14.89
2022-09-20T13:11:47.595Z,14.82
2022-09-20T13:14:31.248Z,14.97
2022-09-20T13:16:59.010Z,15.96
2022-09-20T13:19:29.588Z,16.59
2022-09-20T13:22:14.826Z,17.23
2022-09-20T13:24:43.124Z,17.51
2022-09-20T13:27:11.604Z,17.63
2022-09-20T13:29:39.240Z,17.19
2022-09-20T13:32:24.466Z,17.34
2022-09-20T13:35:09.303Z,17.06
2022-09-20T13:37:35.825Z,17.42
2022-09-20T13:40:02.422Z,17.63
2022-09-20T13:42:29.973Z,17.95
2022-09-20T13:44:57.158Z,18.08
2022-09-20T13:47:24.584Z,17.02
2022-09-20T13:49:50.954Z,16.59
2022-09-20T13:52:22.182Z,16.65
2022-09-20T13:54:48.539Z,16.09
2022-09-20T13:57:17.923Z,15.77
2022-09-20T13:59:45.427Z,15.75
2022-09-20T14:02:18.795Z,15.47
2022-09-20T14:04:45.442Z,15.64
2022-09-20T14:07:12.813Z,15.26
2022-09-20T14:09:39.383Z,15.06
2022-09-20T14:12:06.339Z,14.81
2022-09-20T14:14:33.159Z,14.64
2022-09-20T14:16:59.517Z,14.90
2022-09-20T14:19:31.135Z,14.86
2022-09-20T14:21:59.054Z,14.95
2022-09-20T14:24:31.819Z,14.93
2022-09-20T14:27:02.521Z,14.92
2022-09-20T14:29:34.850Z,14.51
2022-09-20T14:32:02.122Z,14.35
2022-09-20T14:34:28.521Z,14.45
2022-09-20T14:37:02.179Z,14.39
2022-09-20T14:39:28.515Z,14.36
2022-09-20T14:41:55.510Z,14.41
2022-09-20T14:44:31.761Z,14.53
2022-09-20T14:46:58.165Z,14.64
2022-09-20T14:49:24.419Z,14.66
2022-09-20T14:51:50.973Z,14.80
2022-09-20T14:54:37.699Z,14.62
2022-09-20T14:57:04.045Z,14.62
2022-09-20T14:59:37.037Z,14.73
2022-09-20T15:02:15.828Z,14.54
2022-09-20T15:04:42.321Z,14.38
2022-09-20T15:07:10.473Z,13.67
2022-09-20T15:09:36.791Z,13.60
2022-09-20T15:12:06.974Z,13.20
2022-09-20T15:14:37.505Z,12.70
2022-09-20T15:17:04.486Z,12.22
2022-09-20T15:19:30.785Z,12.18
2022-09-20T15:21:57.113Z,12.00
2022-09-20T15:24:23.418Z,11.71
2022-09-20T15:26:49.752Z,11.31
2022-09-20T15:29:17.150Z,11.41
2022-09-20T15:31:43.942Z,11.42
2022-09-20T15:34:12.050Z,11.21
2022-09-20T15:36:41.339Z,11.18
2022-09-20T15:39:08.181Z,11.30
2022-09-20T15:41:35.363Z,11.16
2022-09-20T15:44:03.314Z,11.23
2022-09-20T15:46:29.615Z,11.10
2022-09-20T15:48:56.300Z,10.89
2022-09-20T15:51:22.688Z,10.74
2022-09-20T15:53:58.841Z,10.83
2022-09-20T15:56:27.391Z,10.88
2022-09-20T15:59:12.456Z,10.96
2022-09-20T16:01:39.769Z,11.07
2022-09-20T16:04:07.192Z,11.05
2022-09-20T16:06:33.636Z,11.07
2022-09-20T16:08:59.951Z,11.07
2022-09-20T16:11:27.918Z,10.97
2022-09-20T16:13:54.672Z,10.82
2022-09-20T16:16:21.092Z,10.79
2022-09-20T16:19:06.403Z,10.72
2022-09-20T16:21:32.812Z,10.86
2022-09-20T16:23:59.255Z,10.88
2022-09-20T16:26:25.993Z,10.95
2022-09-20T16:28:52.455Z,10.97
2022-09-20T16:31:35.259Z,10.76
2022-09-20T16:34:02.641Z,10.62
2022-09-20T16:36:28.982Z,10.63
2022-09-20T16:38:55.756Z,10.58
2022-09-20T16:41:26.195Z,10.61
2022-09-20T16:43:52.705Z,10.67
2022-09-20T16:46:22.278Z,10.54
2022-09-20T16:48:52.993Z,10.46
2022-09-20T16:51:19.784Z,10.43
2022-09-20T16:53:46.093Z,10.40
2022-09-20T16:56:22.270Z,10.41
2022-09-20T16:58:48.645Z,10.44
2022-09-20T17:01:15.042Z,10.35
2022-09-20T17:03:41.487Z,10.42
2022-09-20T17:06:08.156Z,10.40
2022-09-20T17:08:40.407Z,10.39
2022-09-20T17:11:10.702Z,10.22
2022-09-20T17:13:39.186Z,10.05
2022-09-20T17:16:06.383Z,10.02
2022-09-20T17:18:33.480Z,10.03
2022-09-20T17:21:04.089Z,10.06
2022-09-20T17:23:33.342Z,9.90
2022-09-20T17:26:06.398Z,9.89
2022-09-20T17:28:36.758Z,9.79
2022-09-20T17:31:03.325Z,9.68
2022-09-20T17:33:32.588Z,9.54
2022-09-20T17:36:00.241Z,9.45
2022-09-20T17:38:27.111Z,9.41
2022-09-20T17:41:00.506Z,9.44
2022-09-20T17:43:28.859Z,9.37
2022-09-20T17:45:56.611Z,9.26
2022-09-20T17:48:25.863Z,9.20
2022-09-20T17:50:58.205Z,9.23
2022-09-20T17:53:24.533Z,9.27
2022-09-20T17:55:54.656Z,9.31
2022-09-20T17:58:21.019Z,9.32
2022-09-20T18:00:47.378Z,9.37
2022-09-20T18:03:14.478Z,9.42
2022-09-20T18:05:40.816Z,9.34
2022-09-20T18:08:07.150Z,9.46
2022-09-20T18:10:33.458Z,9.36
2022-09-20T18:13:00.281Z,9.30
2022-09-20T18:15:27.581Z,9.24
2022-09-20T18:17:54.663Z,9.15
2022-09-20T18:20:21.007Z,9.11
2022-09-20T18:22:50.028Z,8.95
2022-09-20T18:25:16.334Z,9.11
2022-09-20T18:27:43.554Z,9.09
2022-09-20T18:30:10.086Z,9.08
2022-09-20T18:32:36.424Z,9.12
2022-09-20T18:35:02.787Z,9.33
2022-09-20T18:37:30.621Z,9.22
2022-09-20T18:39:56.934Z,9.09
2022-09-20T18:42:23.244Z,9.03
2022-09-20T18:44:49.628Z,8.77
2022-09-20T18:47:16.000Z,8.69
2022-09-20T18:49:42.334Z,8.70
2022-09-20T18:52:10.704Z,8.76
2022-09-20T18:54:37.276Z,8.64
2022-09-20T18:57:03.676Z,8.60
2022-09-20T18:59:30.036Z,8.57
2022-09-20T19:02:01.185Z,8.63
2022-09-20T19:04:37.499Z,8.57
2022-09-20T19:07:07.584Z,8.57
2022-09-20T19:09:37.006Z,8.54
2022-09-20T19:12:22.135Z,8.57
2022-09-20T19:14:51.178Z,8.61
2022-09-20T19:17:18.097Z,8.51
2022-09-20T19:19:44.459Z,8.61
2022-09-20T19:22:13.771Z,8.51
2022-09-20T19:25:03.320Z,8.51
2022-09-20T19:27:29.722Z,8.33
2022-09-20T19:29:56.159Z,8.38
2022-09-20T19:32:26.017Z,8.43
2022-09-20T19:34:53.136Z,8.37
2022-09-20T19:37:48.979Z,8.24
2022-09-20T19:40:32.838Z,8.27
2022-09-20T19:43:06.425Z,8.12
2022-09-20T19:45:40.510Z,8.08
2022-09-20T19:48:25.881Z,8.07
2022-09-20T19:50:52.538Z,7.95
2022-09-20T19:53:20.935Z,7.96
2022-09-20T19:55:47.748Z,8.01
2022-09-20T19:58:14.531Z,7.98
2022-09-20T20:00:43.147Z,7.97
2022-09-20T20:03:10.557Z,7.81
2022-09-20T20:05:36.989Z,7.72
2022-09-20T20:08:13.237Z,7.70
2022-09-20T20:10:57.612Z,7.67
2022-09-20T20:13:58.046Z,7.69
2022-09-20T20:16:28.623Z,7.66
2022-09-20T20:18:56.155Z,7.73
2022-09-20T20:21:26.370Z,7.81
2022-09-20T20:23:58.438Z,7.89
2022-09-20T20:26:24.939Z,7.77
2022-09-20T20:28:52.324Z,7.88
2022-09-20T20:31:19.078Z,7.77
2022-09-20T20:33:45.449Z,7.74
2022-09-20T20:36:12.030Z,7.85
2022-09-20T20:38:39.381Z,7.75
2022-09-20T20:41:15.965Z,7.74
2022-09-20T20:43:42.996Z,7.67
2022-09-20T20:46:10.243Z,7.53
2022-09-20T20:48:36.986Z,7.61
2022-09-20T20:51:04.371Z,7.56
2022-09-20T20:53:34.283Z,7.65
2022-09-20T20:56:01.407Z,7.65
2022-09-20T20:58:32.486Z,7.62
2022-09-20T21:01:08.565Z,7.67
2022-09-20T21:03:35.273Z,7.52
2022-09-20T21:06:04.242Z,7.55
2022-09-20T21:08:34.219Z,7.54
2022-09-20T21:11:05.083Z,7.47
2022-09-20T21:13:32.115Z,7.45
2022-09-20T21:16:24.586Z,7.40
2022-09-20T21:18:50.984Z,7.53
2022-09-20T21:21:17.506Z,7.55
2022-09-20T21:23:45.753Z,7.51
2022-09-20T21:26:12.554Z,7.61
2022-09-20T21:28:39.766Z,7.55
2022-09-20T21:31:06.290Z,7.43
2022-09-20T21:33:33.192Z,7.54
2022-09-20T21:36:00.639Z,7.44
2022-09-20T21:38:28.593Z,7.35
2022-09-20T21:41:22.363Z,7.36
2022-09-20T21:43:50.357Z,7.16
2022-09-20T21:46:17.620Z,7.09
2022-09-20T21:48:44.014Z,7.27
2022-09-20T21:51:10.770Z,7.46
2022-09-20T21:53:37.213Z,7.20
2022-09-20T21:56:04.272Z,7.22
2022-09-20T21:58:30.599Z,7.26
2022-09-20T22:01:04.327Z,7.25
2022-09-20T22:03:34.468Z,7.23
2022-09-20T22:06:17.300Z,7.27
2022-09-20T22:08:47.627Z,7.23
2022-09-20T22:11:15.098Z,7.40
2022-09-20T22:13:45.024Z,7.25
2022-09-20T22:16:12.632Z,7.16
2022-09-20T22:18:39.965Z,7.19
2022-09-20T22:21:10.518Z,7.12
2022-09-20T22:23:37.232Z,7.13
2022-09-20T22:26:04.807Z,7.00
2022-09-20T22:28:31.314Z,7.06
2022-09-20T22:31:02.151Z,7.17
2022-09-20T22:33:28.497Z,7.20
2022-09-20T22:35:55.167Z,7.28
2022-09-20T22:38:21.469Z,7.29
2022-09-20T22:40:54.746Z,7.07
2022-09-20T22:43:21.041Z,7.27
2022-09-20T22:45:47.605Z,7.20
2022-09-20T22:48:13.934Z,7.17
2022-09-20T22:50:40.248Z,7.03
2022-09-20T22:53:06.558Z,7.05
2022-09-20T22:55:32.865Z,6.97
2022-09-20T22:57:59.160Z,6.95
2022-09-20T23:00:25.806Z,7.08
2022-09-20T23:02:56.122Z,7.02
2022-09-20T23:05:22.491Z,7.04
2022-09-20T23:07:48.788Z,7.10
2022-09-20T23:10:15.696Z,6.98
2022-09-20T23:12:42.017Z,6.96
2022-09-20T23:15:11.543Z,7.08
2022-09-20T23:17:40.442Z,6.98
2022-09-20T23:20:06.954Z,7.08
2022-09-20T23:22:33.258Z,7.09
2022-09-20T23:24:59.710Z,7.12
2022-09-20T23:27:26.018Z,7.09
2022-09-20T23:29:52.329Z,6.93
2022-09-20T23:32:18.633Z,7.07
2022-09-20T23:34:44.956Z,7.11
2022-09-20T23:37:11.936Z,7.02
2022-09-20T23:39:38.410Z,6.97
2022-09-20T23:42:04.825Z,6.86
2022-09-20T23:44:31.141Z,6.74
2022-09-20T23:46:57.518Z,6.76
2022-09-20T23:49:23.848Z,6.85
2022-09-20T23:51:50.419Z,6.74
2022-09-20T23:54:16.764Z,6.90
2022-09-20T23:56:43.105Z,6.87
2022-09-20T23:59:09.419Z,7.07
